Portada
METAR-TAF:

METAR-TAF

Aeroports :

Aeroport Internacional del Caire

El Caire, Egipte

latitud: 30-08N, longitud: 031-24E, altitud: 64 m

Observació

L'informe es va fer fa 24 minuts, a les 08:00 UTC
Vent 9 kt del Nord/Nord-Est
Temperatura 26°C
Humitat 48%
Pressió 1014 hPa
Visibilitat 10 km o més
sense núvols per sota de 1500 mi sense presència de cumulonimbus.

METAR: HECA 060800Z 03009KT CAVOK 26/14 Q1014 NOSIG

Hora: 10:24 (08:24 UTC)

Pronòstic

L'informe es va fer fa 3 hores i 24 minuts, a les 05:00 UTC
Pronòstic vàlid del 06 a les 06 UTC al 07 a les 12 UTC
Vent 7 kt del Est/Nord-Est
Visibilitat 10 km o més
sense núvols per sota de 1500 mi sense presència de cumulonimbus.

TAF: HECA 060500Z 0606/0712 06007KT CAVOK

Observacions i pronòstics meteorològics de més de 4000 aeroports (METAR i TAF).

Les estacions disponibles són els punts grocs i vermells al mapa.

Posi el ratolí al punt desitjat per veure el nom de l'estació.

Feu clic per veure les observacions i els pronòstics meteorològics.

Per canviar el mapa: feu clic els botons verds amb una creu de color negre per apropar; al botó verd amb un guió per allunyar la imatge; o en les fletxes verdes per a mapes adjacents.


METAR-TAF: